sensor_id;sensor_type;location;lat;lon;timestamp;temperature;humidity
22635;DHT22;11484;50.858;4.384;2023-07-31T00:00:14;19.60;99.90
22635;DHT22;11484;50.858;4.384;2023-07-31T00:02:41;19.70;99.90
22635;DHT22;11484;50.858;4.384;2023-07-31T00:05:08;19.70;99.90
22635;DHT22;11484;50.858;4.384;2023-07-31T00:07:35;19.70;99.90
22635;DHT22;11484;50.858;4.384;2023-07-31T00:10:03;19.70;99.90
22635;DHT22;11484;50.858;4.384;2023-07-31T00:12:29;19.70;99.90
22635;DHT22;11484;50.858;4.384;2023-07-31T00:14:55;19.70;99.90
22635;DHT22;11484;50.858;4.384;2023-07-31T00:17:20;19.70;99.90
22635;DHT22;11484;50.858;4.384;2023-07-31T00:19:46;19.70;99.90
22635;DHT22;11484;50.858;4.384;2023-07-31T00:22:14;19.70;99.90
22635;DHT22;11484;50.858;4.384;2023-07-31T00:24:40;19.70;99.90
22635;DHT22;11484;50.858;4.384;2023-07-31T00:27:05;19.70;99.90
22635;DHT22;11484;50.858;4.384;2023-07-31T00:29:31;19.70;99.90
22635;DHT22;11484;50.858;4.384;2023-07-31T00:31:59;19.70;99.90
22635;DHT22;11484;50.858;4.384;2023-07-31T00:34:28;19.70;99.90
22635;DHT22;11484;50.858;4.384;2023-07-31T00:36:53;19.70;99.90
22635;DHT22;11484;50.858;4.384;2023-07-31T00:39:19;19.70;99.90
22635;DHT22;11484;50.858;4.384;2023-07-31T00:41:45;19.80;99.90
22635;DHT22;11484;50.858;4.384;2023-07-31T00:44:10;19.80;99.90
22635;DHT22;11484;50.858;4.384;2023-07-31T00:46:36;19.80;99.90
22635;DHT22;11484;50.858;4.384;2023-07-31T00:49:02;19.80;99.90
22635;DHT22;11484;50.858;4.384;2023-07-31T00:51:29;19.80;99.90
22635;DHT22;11484;50.858;4.384;2023-07-31T00:53:55;19.90;99.90
22635;DHT22;11484;50.858;4.384;2023-07-31T00:56:22;19.90;99.90
22635;DHT22;11484;50.858;4.384;2023-07-31T00:58:47;19.90;99.90
22635;DHT22;11484;50.858;4.384;2023-07-31T01:01:13;19.90;99.90
22635;DHT22;11484;50.858;4.384;2023-07-31T01:03:39;19.90;99.90
22635;DHT22;11484;50.858;4.384;2023-07-31T01:11:27;19.90;99.90
22635;DHT22;11484;50.858;4.384;2023-07-31T01:13:54;19.90;99.90
22635;DHT22;11484;50.858;4.384;2023-07-31T01:16:20;20.00;99.90
22635;DHT22;11484;50.858;4.384;2023-07-31T01:18:46;19.90;99.90
22635;DHT22;11484;50.858;4.384;2023-07-31T01:26:35;19.80;99.90
22635;DHT22;11484;50.858;4.384;2023-07-31T01:29:10;19.70;99.90
22635;DHT22;11484;50.858;4.384;2023-07-31T01:31:39;19.80;99.90
22635;DHT22;11484;50.858;4.384;2023-07-31T01:34:09;19.70;99.90
22635;DHT22;11484;50.858;4.384;2023-07-31T01:36:36;19.80;99.90
22635;DHT22;11484;50.858;4.384;2023-07-31T01:39:02;19.80;99.90
22635;DHT22;11484;50.858;4.384;2023-07-31T01:41:29;19.70;99.90
22635;DHT22;11484;50.858;4.384;2023-07-31T01:43:55;19.80;99.90
22635;DHT22;11484;50.858;4.384;2023-07-31T01:46:20;19.80;99.90
22635;DHT22;11484;50.858;4.384;2023-07-31T01:48:46;19.70;99.90
22635;DHT22;11484;50.858;4.384;2023-07-31T01:51:12;19.70;99.90
22635;DHT22;11484;50.858;4.384;2023-07-31T01:53:37;19.80;99.90
22635;DHT22;11484;50.858;4.384;2023-07-31T01:56:03;19.80;99.90
22635;DHT22;11484;50.858;4.384;2023-07-31T01:58:29;19.90;99.90
22635;DHT22;11484;50.858;4.384;2023-07-31T02:00:54;19.80;99.90
22635;DHT22;11484;50.858;4.384;2023-07-31T02:03:21;19.80;99.90
22635;DHT22;11484;50.858;4.384;2023-07-31T02:05:48;19.90;99.90
22635;DHT22;11484;50.858;4.384;2023-07-31T02:08:14;19.90;99.90
22635;DHT22;11484;50.858;4.384;2023-07-31T02:10:40;20.00;99.90
22635;DHT22;11484;50.858;4.384;2023-07-31T02:13:06;20.00;99.90
22635;DHT22;11484;50.858;4.384;2023-07-31T02:15:31;20.00;99.90
22635;DHT22;11484;50.858;4.384;2023-07-31T02:17:57;20.00;99.90
22635;DHT22;11484;50.858;4.384;2023-07-31T02:20:23;20.00;99.90
22635;DHT22;11484;50.858;4.384;2023-07-31T02:22:49;20.10;99.90
22635;DHT22;11484;50.858;4.384;2023-07-31T02:25:15;20.00;99.90
22635;DHT22;11484;50.858;4.384;2023-07-31T02:27:40;19.90;99.90
22635;DHT22;11484;50.858;4.384;2023-07-31T02:30:06;19.90;99.90
22635;DHT22;11484;50.858;4.384;2023-07-31T02:32:32;20.00;99.90
22635;DHT22;11484;50.858;4.384;2023-07-31T02:34:58;20.00;99.90
22635;DHT22;11484;50.858;4.384;2023-07-31T02:37:24;20.00;99.90
22635;DHT22;11484;50.858;4.384;2023-07-31T02:39:50;20.00;99.90
22635;DHT22;11484;50.858;4.384;2023-07-31T02:42:16;20.00;99.90
22635;DHT22;11484;50.858;4.384;2023-07-31T02:44:41;20.00;99.90
22635;DHT22;11484;50.858;4.384;2023-07-31T02:47:07;20.00;99.90
22635;DHT22;11484;50.858;4.384;2023-07-31T02:49:33;20.00;99.90
22635;DHT22;11484;50.858;4.384;2023-07-31T02:51:58;20.00;99.90
22635;DHT22;11484;50.858;4.384;2023-07-31T02:54:24;20.00;99.90
22635;DHT22;11484;50.858;4.384;2023-07-31T02:56:50;20.10;99.90
22635;DHT22;11484;50.858;4.384;2023-07-31T02:59:16;20.00;99.90
22635;DHT22;11484;50.858;4.384;2023-07-31T03:01:42;20.00;99.90
22635;DHT22;11484;50.858;4.384;2023-07-31T03:04:07;19.90;99.90
22635;DHT22;11484;50.858;4.384;2023-07-31T03:06:33;19.90;99.90
22635;DHT22;11484;50.858;4.384;2023-07-31T03:08:59;19.90;99.90
22635;DHT22;11484;50.858;4.384;2023-07-31T03:11:24;19.80;99.90
22635;DHT22;11484;50.858;4.384;2023-07-31T03:13:50;19.90;99.90
22635;DHT22;11484;50.858;4.384;2023-07-31T03:16:16;19.90;99.90
22635;DHT22;11484;50.858;4.384;2023-07-31T03:18:41;19.90;99.90
22635;DHT22;11484;50.858;4.384;2023-07-31T03:21:07;19.90;99.90
22635;DHT22;11484;50.858;4.384;2023-07-31T03:23:32;20.00;99.90
22635;DHT22;11484;50.858;4.384;2023-07-31T03:26:00;19.90;99.90
22635;DHT22;11484;50.858;4.384;2023-07-31T03:28:26;19.90;99.90
22635;DHT22;11484;50.858;4.384;2023-07-31T03:30:52;19.80;99.90
22635;DHT22;11484;50.858;4.384;2023-07-31T03:33:18;19.80;99.90
22635;DHT22;11484;50.858;4.384;2023-07-31T03:35:44;19.80;99.90
22635;DHT22;11484;50.858;4.384;2023-07-31T03:38:10;19.80;99.90
22635;DHT22;11484;50.858;4.384;2023-07-31T03:40:35;19.80;99.90
22635;DHT22;11484;50.858;4.384;2023-07-31T03:43:01;19.80;99.90
22635;DHT22;11484;50.858;4.384;2023-07-31T03:45:27;19.80;99.90
22635;DHT22;11484;50.858;4.384;2023-07-31T03:47:52;19.70;99.90
22635;DHT22;11484;50.858;4.384;2023-07-31T03:50:20;19.60;99.90
22635;DHT22;11484;50.858;4.384;2023-07-31T03:52:46;19.60;99.90
22635;DHT22;11484;50.858;4.384;2023-07-31T03:55:11;19.60;99.90
22635;DHT22;11484;50.858;4.384;2023-07-31T03:57:37;19.60;99.90
22635;DHT22;11484;50.858;4.384;2023-07-31T04:00:03;19.60;99.90
22635;DHT22;11484;50.858;4.384;2023-07-31T04:02:29;19.60;99.90
22635;DHT22;11484;50.858;4.384;2023-07-31T04:04:54;19.60;99.90
22635;DHT22;11484;50.858;4.384;2023-07-31T04:07:20;19.50;99.90
22635;DHT22;11484;50.858;4.384;2023-07-31T04:09:46;19.50;99.90
22635;DHT22;11484;50.858;4.384;2023-07-31T04:12:12;19.50;99.90
22635;DHT22;11484;50.858;4.384;2023-07-31T04:14:37;19.50;99.90
22635;DHT22;11484;50.858;4.384;2023-07-31T04:17:03;19.60;99.90
22635;DHT22;11484;50.858;4.384;2023-07-31T04:19:29;19.60;99.90
22635;DHT22;11484;50.858;4.384;2023-07-31T04:21:55;19.70;99.90
22635;DHT22;11484;50.858;4.384;2023-07-31T04:24:20;19.70;99.90
22635;DHT22;11484;50.858;4.384;2023-07-31T04:26:53;19.70;99.90
22635;DHT22;11484;50.858;4.384;2023-07-31T04:29:19;19.60;99.90
22635;DHT22;11484;50.858;4.384;2023-07-31T04:31:45;19.60;99.90
22635;DHT22;11484;50.858;4.384;2023-07-31T04:34:11;19.60;99.90
22635;DHT22;11484;50.858;4.384;2023-07-31T04:36:39;19.70;99.90
22635;DHT22;11484;50.858;4.384;2023-07-31T04:39:05;19.70;99.90
22635;DHT22;11484;50.858;4.384;2023-07-31T04:41:31;19.60;99.90
22635;DHT22;11484;50.858;4.384;2023-07-31T04:43:57;19.70;99.90
22635;DHT22;11484;50.858;4.384;2023-07-31T04:46:22;19.60;99.90
22635;DHT22;11484;50.858;4.384;2023-07-31T04:48:48;19.60;99.90
22635;DHT22;11484;50.858;4.384;2023-07-31T04:51:13;19.60;99.90
22635;DHT22;11484;50.858;4.384;2023-07-31T04:53:39;19.60;99.90
22635;DHT22;11484;50.858;4.384;2023-07-31T04:56:05;19.60;99.90
22635;DHT22;11484;50.858;4.384;2023-07-31T04:58:30;19.60;99.90
22635;DHT22;11484;50.858;4.384;2023-07-31T05:00:56;19.60;99.90
22635;DHT22;11484;50.858;4.384;2023-07-31T05:03:23;19.60;99.90
22635;DHT22;11484;50.858;4.384;2023-07-31T05:05:50;19.60;99.90
22635;DHT22;11484;50.858;4.384;2023-07-31T05:08:16;19.60;99.90
22635;DHT22;11484;50.858;4.384;2023-07-31T05:10:43;19.60;99.90
22635;DHT22;11484;50.858;4.384;2023-07-31T05:13:09;19.50;99.90
22635;DHT22;11484;50.858;4.384;2023-07-31T05:15:34;19.50;99.90
22635;DHT22;11484;50.858;4.384;2023-07-31T05:18:00;19.40;99.90
22635;DHT22;11484;50.858;4.384;2023-07-31T05:20:26;19.50;99.90
22635;DHT22;11484;50.858;4.384;2023-07-31T05:22:53;19.40;99.90
22635;DHT22;11484;50.858;4.384;2023-07-31T05:25:19;19.40;99.90
22635;DHT22;11484;50.858;4.384;2023-07-31T05:27:44;19.40;99.90
22635;DHT22;11484;50.858;4.384;2023-07-31T05:30:13;19.40;99.90
22635;DHT22;11484;50.858;4.384;2023-07-31T05:32:42;19.40;99.90
22635;DHT22;11484;50.858;4.384;2023-07-31T05:35:11;19.40;99.90
22635;DHT22;11484;50.858;4.384;2023-07-31T05:37:37;19.40;99.90
22635;DHT22;11484;50.858;4.384;2023-07-31T05:40:03;19.40;99.90
22635;DHT22;11484;50.858;4.384;2023-07-31T05:42:29;19.40;99.90
22635;DHT22;11484;50.858;4.384;2023-07-31T05:44:55;19.40;99.90
22635;DHT22;11484;50.858;4.384;2023-07-31T05:47:20;19.40;99.90
22635;DHT22;11484;50.858;4.384;2023-07-31T05:49:52;19.40;99.90
22635;DHT22;11484;50.858;4.384;2023-07-31T05:52:21;19.40;99.90
22635;DHT22;11484;50.858;4.384;2023-07-31T05:54:47;19.40;99.90
22635;DHT22;11484;50.858;4.384;2023-07-31T05:57:12;19.40;99.90
22635;DHT22;11484;50.858;4.384;2023-07-31T05:59:38;19.40;99.90
22635;DHT22;11484;50.858;4.384;2023-07-31T06:02:04;19.40;99.90
22635;DHT22;11484;50.858;4.384;2023-07-31T06:04:30;19.40;99.90
22635;DHT22;11484;50.858;4.384;2023-07-31T06:06:56;19.50;99.90
22635;DHT22;11484;50.858;4.384;2023-07-31T06:09:22;19.50;99.90
22635;DHT22;11484;50.858;4.384;2023-07-31T06:11:48;19.50;99.90
22635;DHT22;11484;50.858;4.384;2023-07-31T06:14:14;19.50;99.90
22635;DHT22;11484;50.858;4.384;2023-07-31T06:16:40;19.50;99.90
22635;DHT22;11484;50.858;4.384;2023-07-31T06:19:06;19.60;99.90
22635;DHT22;11484;50.858;4.384;2023-07-31T06:21:33;19.60;99.90
22635;DHT22;11484;50.858;4.384;2023-07-31T06:23:58;19.60;99.90
22635;DHT22;11484;50.858;4.384;2023-07-31T06:26:24;19.60;99.90
22635;DHT22;11484;50.858;4.384;2023-07-31T06:28:50;19.60;99.90
22635;DHT22;11484;50.858;4.384;2023-07-31T06:31:16;19.60;99.90
22635;DHT22;11484;50.858;4.384;2023-07-31T06:33:45;19.60;99.90
22635;DHT22;11484;50.858;4.384;2023-07-31T06:36:11;19.60;99.90
22635;DHT22;11484;50.858;4.384;2023-07-31T06:38:37;19.70;99.90
22635;DHT22;11484;50.858;4.384;2023-07-31T06:41:03;19.70;99.90
22635;DHT22;11484;50.858;4.384;2023-07-31T06:43:31;19.80;99.90
22635;DHT22;11484;50.858;4.384;2023-07-31T06:45:57;19.80;99.90
22635;DHT22;11484;50.858;4.384;2023-07-31T06:48:23;19.70;99.90
22635;DHT22;11484;50.858;4.384;2023-07-31T06:50:48;19.80;99.90
22635;DHT22;11484;50.858;4.384;2023-07-31T06:53:14;19.90;99.90
22635;DHT22;11484;50.858;4.384;2023-07-31T06:55:40;20.00;99.90
22635;DHT22;11484;50.858;4.384;2023-07-31T06:58:07;20.10;99.90
22635;DHT22;11484;50.858;4.384;2023-07-31T07:00:33;20.20;99.90
22635;DHT22;11484;50.858;4.384;2023-07-31T07:02:58;20.10;99.90
22635;DHT22;11484;50.858;4.384;2023-07-31T07:05:26;20.20;99.90
22635;DHT22;11484;50.858;4.384;2023-07-31T07:07:52;20.20;99.90
22635;DHT22;11484;50.858;4.384;2023-07-31T07:10:18;20.40;99.90
22635;DHT22;11484;50.858;4.384;2023-07-31T07:12:44;20.40;99.90
22635;DHT22;11484;50.858;4.384;2023-07-31T07:15:09;20.50;99.90
22635;DHT22;11484;50.858;4.384;2023-07-31T07:17:35;20.60;99.90
22635;DHT22;11484;50.858;4.384;2023-07-31T07:20:08;20.70;99.90
22635;DHT22;11484;50.858;4.384;2023-07-31T07:22:33;20.70;99.90
22635;DHT22;11484;50.858;4.384;2023-07-31T07:24:59;20.70;99.90
22635;DHT22;11484;50.858;4.384;2023-07-31T07:27:25;20.70;99.90
22635;DHT22;11484;50.858;4.384;2023-07-31T07:29:51;20.70;99.90
22635;DHT22;11484;50.858;4.384;2023-07-31T07:32:20;20.70;99.90
22635;DHT22;11484;50.858;4.384;2023-07-31T07:34:47;20.60;99.90
22635;DHT22;11484;50.858;4.384;2023-07-31T07:37:13;20.60;99.90
22635;DHT22;11484;50.858;4.384;2023-07-31T07:39:39;20.60;99.90
22635;DHT22;11484;50.858;4.384;2023-07-31T07:42:05;20.50;99.90
22635;DHT22;11484;50.858;4.384;2023-07-31T07:44:31;20.50;99.90
22635;DHT22;11484;50.858;4.384;2023-07-31T07:46:57;20.60;99.90
22635;DHT22;11484;50.858;4.384;2023-07-31T07:49:22;20.60;99.90
22635;DHT22;11484;50.858;4.384;2023-07-31T07:51:48;20.60;99.90
22635;DHT22;11484;50.858;4.384;2023-07-31T07:54:14;20.70;99.90
22635;DHT22;11484;50.858;4.384;2023-07-31T07:56:42;20.70;99.90
22635;DHT22;11484;50.858;4.384;2023-07-31T07:59:08;20.70;99.90
22635;DHT22;11484;50.858;4.384;2023-07-31T08:01:33;20.70;99.90
22635;DHT22;11484;50.858;4.384;2023-07-31T08:03:59;20.70;99.90
22635;DHT22;11484;50.858;4.384;2023-07-31T08:06:25;20.60;99.90
22635;DHT22;11484;50.858;4.384;2023-07-31T08:08:50;20.70;99.90
22635;DHT22;11484;50.858;4.384;2023-07-31T08:11:16;20.60;99.90
22635;DHT22;11484;50.858;4.384;2023-07-31T08:13:42;20.60;99.90
22635;DHT22;11484;50.858;4.384;2023-07-31T08:16:07;20.50;99.90
22635;DHT22;11484;50.858;4.384;2023-07-31T08:18:34;20.50;99.90
22635;DHT22;11484;50.858;4.384;2023-07-31T08:21:01;20.60;99.90
22635;DHT22;11484;50.858;4.384;2023-07-31T08:23:28;20.60;99.90
22635;DHT22;11484;50.858;4.384;2023-07-31T08:25:53;20.60;99.90
22635;DHT22;11484;50.858;4.384;2023-07-31T08:28:19;20.60;99.90
22635;DHT22;11484;50.858;4.384;2023-07-31T08:30:45;20.60;99.90
22635;DHT22;11484;50.858;4.384;2023-07-31T08:33:10;20.60;99.90
22635;DHT22;11484;50.858;4.384;2023-07-31T08:35:36;20.50;99.90
22635;DHT22;11484;50.858;4.384;2023-07-31T08:38:02;20.60;99.90
22635;DHT22;11484;50.858;4.384;2023-07-31T08:40:28;20.60;99.90
22635;DHT22;11484;50.858;4.384;2023-07-31T08:42:55;20.70;99.90
22635;DHT22;11484;50.858;4.384;2023-07-31T08:45:22;20.60;99.90
22635;DHT22;11484;50.858;4.384;2023-07-31T08:47:51;20.60;99.90
22635;DHT22;11484;50.858;4.384;2023-07-31T08:50:18;20.60;99.90
22635;DHT22;11484;50.858;4.384;2023-07-31T08:52:46;20.60;99.90
22635;DHT22;11484;50.858;4.384;2023-07-31T08:55:12;20.60;99.90
22635;DHT22;11484;50.858;4.384;2023-07-31T08:57:39;20.50;99.90
22635;DHT22;11484;50.858;4.384;2023-07-31T09:00:09;20.50;99.90
22635;DHT22;11484;50.858;4.384;2023-07-31T09:02:39;20.50;99.90
22635;DHT22;11484;50.858;4.384;2023-07-31T09:05:07;20.50;99.90
22635;DHT22;11484;50.858;4.384;2023-07-31T09:07:36;20.60;99.90
22635;DHT22;11484;50.858;4.384;2023-07-31T09:10:03;20.60;99.90
22635;DHT22;11484;50.858;4.384;2023-07-31T09:12:30;20.70;99.90
22635;DHT22;11484;50.858;4.384;2023-07-31T09:14:57;20.70;99.90
22635;DHT22;11484;50.858;4.384;2023-07-31T09:17:30;20.70;99.90
22635;DHT22;11484;50.858;4.384;2023-07-31T09:20:19;20.70;99.90
22635;DHT22;11484;50.858;4.384;2023-07-31T09:22:47;20.70;99.90
22635;DHT22;11484;50.858;4.384;2023-07-31T09:25:24;20.70;99.90
22635;DHT22;11484;50.858;4.384;2023-07-31T09:27:53;20.70;99.90
22635;DHT22;11484;50.858;4.384;2023-07-31T09:30:20;20.80;99.90
22635;DHT22;11484;50.858;4.384;2023-07-31T09:32:47;20.80;99.90
22635;DHT22;11484;50.858;4.384;2023-07-31T09:35:20;21.00;99.90
22635;DHT22;11484;50.858;4.384;2023-07-31T09:37:50;21.00;99.90
22635;DHT22;11484;50.858;4.384;2023-07-31T09:40:30;21.00;99.90
22635;DHT22;11484;50.858;4.384;2023-07-31T09:42:57;21.10;99.90
22635;DHT22;11484;50.858;4.384;2023-07-31T09:45:27;21.10;99.90
22635;DHT22;11484;50.858;4.384;2023-07-31T09:47:54;21.20;99.90
22635;DHT22;11484;50.858;4.384;2023-07-31T09:50:21;21.10;99.90
22635;DHT22;11484;50.858;4.384;2023-07-31T09:52:47;21.10;99.90
22635;DHT22;11484;50.858;4.384;2023-07-31T09:55:13;21.20;99.90
22635;DHT22;11484;50.858;4.384;2023-07-31T09:57:45;21.20;99.90
22635;DHT22;11484;50.858;4.384;2023-07-31T10:00:12;21.20;99.90
22635;DHT22;11484;50.858;4.384;2023-07-31T10:02:39;21.30;99.90
22635;DHT22;11484;50.858;4.384;2023-07-31T10:05:08;21.20;99.90
22635;DHT22;11484;50.858;4.384;2023-07-31T10:07:37;21.10;99.90
22635;DHT22;11484;50.858;4.384;2023-07-31T10:10:05;21.10;99.90
22635;DHT22;11484;50.858;4.384;2023-07-31T10:12:33;21.00;99.90
22635;DHT22;11484;50.858;4.384;2023-07-31T10:15:00;20.90;99.90
22635;DHT22;11484;50.858;4.384;2023-07-31T10:17:26;20.90;99.90
22635;DHT22;11484;50.858;4.384;2023-07-31T10:19:59;20.90;99.90
22635;DHT22;11484;50.858;4.384;2023-07-31T10:22:27;21.10;99.90
22635;DHT22;11484;50.858;4.384;2023-07-31T10:24:54;21.10;99.90
22635;DHT22;11484;50.858;4.384;2023-07-31T10:27:20;21.10;99.90
22635;DHT22;11484;50.858;4.384;2023-07-31T10:29:47;21.20;99.90
22635;DHT22;11484;50.858;4.384;2023-07-31T10:32:14;21.20;99.90
22635;DHT22;11484;50.858;4.384;2023-07-31T10:34:41;21.10;99.90
22635;DHT22;11484;50.858;4.384;2023-07-31T10:37:27;21.10;99.90
22635;DHT22;11484;50.858;4.384;2023-07-31T10:40:00;21.20;99.90
22635;DHT22;11484;50.858;4.384;2023-07-31T10:45:11;21.20;99.90
22635;DHT22;11484;50.858;4.384;2023-07-31T10:47:46;21.20;99.90
22635;DHT22;11484;50.858;4.384;2023-07-31T10:50:18;21.20;99.90
22635;DHT22;11484;50.858;4.384;2023-07-31T10:52:49;21.30;99.90
22635;DHT22;11484;50.858;4.384;2023-07-31T10:57:47;21.30;99.90
22635;DHT22;11484;50.858;4.384;2023-07-31T11:00:20;21.50;99.90
22635;DHT22;11484;50.858;4.384;2023-07-31T11:03:16;21.50;99.90
22635;DHT22;11484;50.858;4.384;2023-07-31T11:08:26;21.40;99.90
22635;DHT22;11484;50.858;4.384;2023-07-31T11:11:06;21.40;99.90
22635;DHT22;11484;50.858;4.384;2023-07-31T11:16:00;21.60;99.90
22635;DHT22;11484;50.858;4.384;2023-07-31T11:18:26;21.50;99.90
22635;DHT22;11484;50.858;4.384;2023-07-31T11:20:52;21.60;99.90
22635;DHT22;11484;50.858;4.384;2023-07-31T11:23:18;21.60;99.90
22635;DHT22;11484;50.858;4.384;2023-07-31T11:25:44;21.70;99.90
22635;DHT22;11484;50.858;4.384;2023-07-31T11:28:13;21.80;99.90
22635;DHT22;11484;50.858;4.384;2023-07-31T11:30:40;21.80;99.90
22635;DHT22;11484;50.858;4.384;2023-07-31T11:33:07;21.80;99.90
22635;DHT22;11484;50.858;4.384;2023-07-31T11:35:36;21.70;99.90
22635;DHT22;11484;50.858;4.384;2023-07-31T11:38:07;21.80;99.90
22635;DHT22;11484;50.858;4.384;2023-07-31T11:40:44;21.80;99.90
22635;DHT22;11484;50.858;4.384;2023-07-31T11:43:13;21.80;99.90
22635;DHT22;11484;50.858;4.384;2023-07-31T11:45:48;21.80;99.90
22635;DHT22;11484;50.858;4.384;2023-07-31T11:50:55;21.90;99.90
22635;DHT22;11484;50.858;4.384;2023-07-31T11:53:27;21.90;99.90
22635;DHT22;11484;50.858;4.384;2023-07-31T11:55:55;21.80;99.90
22635;DHT22;11484;50.858;4.384;2023-07-31T11:58:22;21.80;99.90
22635;DHT22;11484;50.858;4.384;2023-07-31T12:00:48;21.90;99.90
22635;DHT22;11484;50.858;4.384;2023-07-31T12:03:15;21.90;99.90
22635;DHT22;11484;50.858;4.384;2023-07-31T12:05:42;21.90;99.90
22635;DHT22;11484;50.858;4.384;2023-07-31T12:08:14;21.90;99.90
22635;DHT22;11484;50.858;4.384;2023-07-31T12:10:41;22.00;99.90
22635;DHT22;11484;50.858;4.384;2023-07-31T12:13:12;22.10;99.90
22635;DHT22;11484;50.858;4.384;2023-07-31T12:15:45;22.20;99.90
22635;DHT22;11484;50.858;4.384;2023-07-31T12:18:21;22.20;99.90
22635;DHT22;11484;50.858;4.384;2023-07-31T12:20:54;22.10;99.90
22635;DHT22;11484;50.858;4.384;2023-07-31T12:23:21;22.20;99.90
22635;DHT22;11484;50.858;4.384;2023-07-31T12:26:08;22.10;99.90
22635;DHT22;11484;50.858;4.384;2023-07-31T12:28:44;22.10;99.90
22635;DHT22;11484;50.858;4.384;2023-07-31T12:31:31;22.10;99.90
22635;DHT22;11484;50.858;4.384;2023-07-31T12:33:58;22.10;99.90
22635;DHT22;11484;50.858;4.384;2023-07-31T12:36:24;22.10;99.90
22635;DHT22;11484;50.858;4.384;2023-07-31T12:38:51;22.10;99.90
22635;DHT22;11484;50.858;4.384;2023-07-31T12:41:20;22.10;99.90
22635;DHT22;11484;50.858;4.384;2023-07-31T12:43:45;22.10;99.90
22635;DHT22;11484;50.858;4.384;2023-07-31T12:46:11;22.10;99.90
22635;DHT22;11484;50.858;4.384;2023-07-31T12:48:38;22.10;99.90
22635;DHT22;11484;50.858;4.384;2023-07-31T12:51:04;22.10;99.90
22635;DHT22;11484;50.858;4.384;2023-07-31T12:53:30;22.10;99.90
22635;DHT22;11484;50.858;4.384;2023-07-31T12:55:56;22.10;99.90
22635;DHT22;11484;50.858;4.384;2023-07-31T12:58:22;22.10;99.90
22635;DHT22;11484;50.858;4.384;2023-07-31T13:00:48;22.10;99.90
22635;DHT22;11484;50.858;4.384;2023-07-31T13:03:14;22.00;99.90
22635;DHT22;11484;50.858;4.384;2023-07-31T13:05:42;22.00;99.90
22635;DHT22;11484;50.858;4.384;2023-07-31T13:08:07;21.90;99.90
22635;DHT22;11484;50.858;4.384;2023-07-31T13:10:33;21.90;99.90
22635;DHT22;11484;50.858;4.384;2023-07-31T13:12:59;21.90;99.90
22635;DHT22;11484;50.858;4.384;2023-07-31T13:15:25;21.70;99.90
22635;DHT22;11484;50.858;4.384;2023-07-31T13:17:50;21.70;99.90
22635;DHT22;11484;50.858;4.384;2023-07-31T13:20:16;21.60;99.90
22635;DHT22;11484;50.858;4.384;2023-07-31T13:22:42;21.60;99.90
22635;DHT22;11484;50.858;4.384;2023-07-31T13:25:08;21.60;99.90
22635;DHT22;11484;50.858;4.384;2023-07-31T13:27:35;21.60;99.90
22635;DHT22;11484;50.858;4.384;2023-07-31T13:30:01;21.60;99.90
22635;DHT22;11484;50.858;4.384;2023-07-31T13:32:26;21.50;99.90
22635;DHT22;11484;50.858;4.384;2023-07-31T13:34:52;21.40;99.90
22635;DHT22;11484;50.858;4.384;2023-07-31T13:37:18;21.30;99.90
22635;DHT22;11484;50.858;4.384;2023-07-31T13:39:43;21.20;99.90
22635;DHT22;11484;50.858;4.384;2023-07-31T13:42:09;21.00;99.90
22635;DHT22;11484;50.858;4.384;2023-07-31T13:44:41;21.00;99.90
22635;DHT22;11484;50.858;4.384;2023-07-31T13:47:08;20.90;99.90
22635;DHT22;11484;50.858;4.384;2023-07-31T13:49:35;20.80;99.90
22635;DHT22;11484;50.858;4.384;2023-07-31T13:52:01;20.80;99.90
22635;DHT22;11484;50.858;4.384;2023-07-31T13:54:29;20.80;99.90
22635;DHT22;11484;50.858;4.384;2023-07-31T13:56:55;20.90;99.90
22635;DHT22;11484;50.858;4.384;2023-07-31T13:59:22;20.80;99.90
22635;DHT22;11484;50.858;4.384;2023-07-31T14:01:48;20.80;99.90
22635;DHT22;11484;50.858;4.384;2023-07-31T14:04:15;20.60;99.90
22635;DHT22;11484;50.858;4.384;2023-07-31T14:06:41;20.60;99.90
22635;DHT22;11484;50.858;4.384;2023-07-31T14:09:07;20.60;99.90
22635;DHT22;11484;50.858;4.384;2023-07-31T14:11:32;20.60;99.90
22635;DHT22;11484;50.858;4.384;2023-07-31T14:13:58;20.60;99.90
22635;DHT22;11484;50.858;4.384;2023-07-31T14:16:24;20.70;99.90
22635;DHT22;11484;50.858;4.384;2023-07-31T14:18:50;20.70;99.90
22635;DHT22;11484;50.858;4.384;2023-07-31T14:21:16;20.90;99.90
22635;DHT22;11484;50.858;4.384;2023-07-31T14:23:42;20.90;99.90
22635;DHT22;11484;50.858;4.384;2023-07-31T14:26:07;20.90;99.90
22635;DHT22;11484;50.858;4.384;2023-07-31T14:28:33;20.90;99.90
22635;DHT22;11484;50.858;4.384;2023-07-31T14:31:01;20.80;99.90
22635;DHT22;11484;50.858;4.384;2023-07-31T14:33:26;20.70;99.90
22635;DHT22;11484;50.858;4.384;2023-07-31T14:35:52;20.70;99.90
22635;DHT22;11484;50.858;4.384;2023-07-31T14:38:18;20.60;99.90
22635;DHT22;11484;50.858;4.384;2023-07-31T14:40:44;20.70;99.90
22635;DHT22;11484;50.858;4.384;2023-07-31T14:43:10;20.70;99.90
22635;DHT22;11484;50.858;4.384;2023-07-31T14:45:35;20.60;99.90
22635;DHT22;11484;50.858;4.384;2023-07-31T14:48:01;20.50;99.90
22635;DHT22;11484;50.858;4.384;2023-07-31T14:50:28;20.50;99.90
22635;DHT22;11484;50.858;4.384;2023-07-31T14:52:57;20.50;99.90
22635;DHT22;11484;50.858;4.384;2023-07-31T14:55:23;20.60;99.90
22635;DHT22;11484;50.858;4.384;2023-07-31T14:57:48;20.80;99.90
22635;DHT22;11484;50.858;4.384;2023-07-31T15:00:14;20.80;99.90
22635;DHT22;11484;50.858;4.384;2023-07-31T15:02:41;20.60;99.90
22635;DHT22;11484;50.858;4.384;2023-07-31T15:05:08;20.40;99.90
22635;DHT22;11484;50.858;4.384;2023-07-31T15:07:34;20.20;99.90
22635;DHT22;11484;50.858;4.384;2023-07-31T15:10:00;20.20;99.90
22635;DHT22;11484;50.858;4.384;2023-07-31T15:12:26;20.20;99.90
22635;DHT22;11484;50.858;4.384;2023-07-31T15:14:53;20.30;99.90
22635;DHT22;11484;50.858;4.384;2023-07-31T15:17:19;20.30;99.90
22635;DHT22;11484;50.858;4.384;2023-07-31T15:19:45;20.30;99.90
22635;DHT22;11484;50.858;4.384;2023-07-31T15:22:12;20.40;99.90
22635;DHT22;11484;50.858;4.384;2023-07-31T15:24:39;20.40;99.90
22635;DHT22;11484;50.858;4.384;2023-07-31T15:27:05;20.50;99.90
22635;DHT22;11484;50.858;4.384;2023-07-31T15:29:33;20.50;99.90
22635;DHT22;11484;50.858;4.384;2023-07-31T15:32:03;20.60;99.90
22635;DHT22;11484;50.858;4.384;2023-07-31T15:34:37;20.50;99.90
22635;DHT22;11484;50.858;4.384;2023-07-31T15:37:02;20.50;99.90
22635;DHT22;11484;50.858;4.384;2023-07-31T15:39:28;20.50;99.90
22635;DHT22;11484;50.858;4.384;2023-07-31T15:41:54;20.50;99.90
22635;DHT22;11484;50.858;4.384;2023-07-31T15:44:25;20.40;99.90
22635;DHT22;11484;50.858;4.384;2023-07-31T15:46:50;20.50;99.90
22635;DHT22;11484;50.858;4.384;2023-07-31T15:49:16;20.50;99.90
22635;DHT22;11484;50.858;4.384;2023-07-31T15:51:42;20.40;99.90